sensor_id;sensor_type;location;lat;lon;timestamp;P1;durP1;ratioP1;P2;durP2;ratioP2
75427;SDS011;64008;55.612;37.698;2023-04-28T00:01:59;9.00;;;4.55;;
75427;SDS011;64008;55.612;37.698;2023-04-28T00:04:24;11.10;;;4.63;;
75427;SDS011;64008;55.612;37.698;2023-04-28T00:06:49;10.93;;;4.45;;
75427;SDS011;64008;55.612;37.698;2023-04-28T00:09:15;8.68;;;3.58;;
75427;SDS011;64008;55.612;37.698;2023-04-28T00:11:43;8.55;;;4.15;;
75427;SDS011;64008;55.612;37.698;2023-04-28T00:14:09;7.35;;;3.65;;
75427;SDS011;64008;55.612;37.698;2023-04-28T00:16:34;8.98;;;4.45;;
75427;SDS011;64008;55.612;37.698;2023-04-28T00:19:00;7.43;;;4.15;;
75427;SDS011;64008;55.612;37.698;2023-04-28T00:21:25;9.38;;;4.18;;
75427;SDS011;64008;55.612;37.698;2023-04-28T00:23:52;9.32;;;4.40;;
75427;SDS011;64008;55.612;37.698;2023-04-28T00:26:18;10.02;;;4.40;;
75427;SDS011;64008;55.612;37.698;2023-04-28T00:28:43;12.32;;;4.32;;
75427;SDS011;64008;55.612;37.698;2023-04-28T00:31:09;9.65;;;4.55;;
75427;SDS011;64008;55.612;37.698;2023-04-28T00:33:38;9.43;;;4.20;;
75427;SDS011;64008;55.612;37.698;2023-04-28T00:36:05;10.63;;;4.00;;
75427;SDS011;64008;55.612;37.698;2023-04-28T00:38:31;8.75;;;4.13;;
75427;SDS011;64008;55.612;37.698;2023-04-28T00:40:56;7.15;;;3.75;;
75427;SDS011;64008;55.612;37.698;2023-04-28T00:43:22;8.77;;;4.88;;
75427;SDS011;64008;55.612;37.698;2023-04-28T00:45:48;10.82;;;5.07;;
75427;SDS011;64008;55.612;37.698;2023-04-28T00:50:40;10.98;;;4.32;;
75427;SDS011;64008;55.612;37.698;2023-04-28T00:53:07;8.32;;;3.67;;
75427;SDS011;64008;55.612;37.698;2023-04-28T00:55:32;8.43;;;3.85;;
75427;SDS011;64008;55.612;37.698;2023-04-28T00:57:59;7.43;;;4.13;;
75427;SDS011;64008;55.612;37.698;2023-04-28T01:00:26;7.72;;;4.75;;
75427;SDS011;64008;55.612;37.698;2023-04-28T01:02:52;7.00;;;4.40;;
75427;SDS011;64008;55.612;37.698;2023-04-28T01:05:18;10.77;;;4.35;;
75427;SDS011;64008;55.612;37.698;2023-04-28T01:07:44;10.13;;;4.32;;
75427;SDS011;64008;55.612;37.698;2023-04-28T01:10:09;10.57;;;4.45;;
75427;SDS011;64008;55.612;37.698;2023-04-28T01:12:35;12.27;;;4.32;;
75427;SDS011;64008;55.612;37.698;2023-04-28T01:15:00;8.73;;;4.40;;
75427;SDS011;64008;55.612;37.698;2023-04-28T01:17:26;7.72;;;3.92;;
75427;SDS011;64008;55.612;37.698;2023-04-28T01:19:52;9.57;;;3.88;;
75427;SDS011;64008;55.612;37.698;2023-04-28T01:22:17;9.63;;;3.47;;
75427;SDS011;64008;55.612;37.698;2023-04-28T01:24:43;7.95;;;4.03;;
75427;SDS011;64008;55.612;37.698;2023-04-28T01:27:09;9.38;;;4.05;;
75427;SDS011;64008;55.612;37.698;2023-04-28T01:29:34;10.80;;;3.78;;
75427;SDS011;64008;55.612;37.698;2023-04-28T01:31:59;11.48;;;4.38;;
75427;SDS011;64008;55.612;37.698;2023-04-28T01:34:25;7.55;;;4.20;;
75427;SDS011;64008;55.612;37.698;2023-04-28T01:36:50;8.90;;;3.65;;
75427;SDS011;64008;55.612;37.698;2023-04-28T01:39:16;8.07;;;3.80;;
75427;SDS011;64008;55.612;37.698;2023-04-28T01:41:41;6.82;;;3.78;;
75427;SDS011;64008;55.612;37.698;2023-04-28T01:44:07;7.35;;;4.25;;
75427;SDS011;64008;55.612;37.698;2023-04-28T01:46:33;10.98;;;4.28;;
75427;SDS011;64008;55.612;37.698;2023-04-28T01:48:59;6.45;;;4.10;;
75427;SDS011;64008;55.612;37.698;2023-04-28T01:51:25;8.70;;;5.05;;
75427;SDS011;64008;55.612;37.698;2023-04-28T01:53:51;11.68;;;4.47;;
75427;SDS011;64008;55.612;37.698;2023-04-28T01:56:17;10.23;;;4.43;;
75427;SDS011;64008;55.612;37.698;2023-04-28T01:58:42;10.25;;;5.28;;
75427;SDS011;64008;55.612;37.698;2023-04-28T02:01:08;11.05;;;6.30;;
75427;SDS011;64008;55.612;37.698;2023-04-28T02:03:33;7.93;;;5.25;;
75427;SDS011;64008;55.612;37.698;2023-04-28T02:05:59;13.00;;;5.55;;
75427;SDS011;64008;55.612;37.698;2023-04-28T02:08:25;13.57;;;4.95;;
75427;SDS011;64008;55.612;37.698;2023-04-28T02:10:50;9.65;;;4.88;;
75427;SDS011;64008;55.612;37.698;2023-04-28T02:13:16;9.02;;;5.10;;
75427;SDS011;64008;55.612;37.698;2023-04-28T02:15:41;8.73;;;5.20;;
75427;SDS011;64008;55.612;37.698;2023-04-28T02:18:08;8.18;;;4.95;;
75427;SDS011;64008;55.612;37.698;2023-04-28T02:22:59;11.85;;;5.30;;
75427;SDS011;64008;55.612;37.698;2023-04-28T02:25:25;10.57;;;4.85;;
75427;SDS011;64008;55.612;37.698;2023-04-28T02:27:50;11.82;;;5.07;;
75427;SDS011;64008;55.612;37.698;2023-04-28T02:30:16;11.57;;;5.78;;
75427;SDS011;64008;55.612;37.698;2023-04-28T02:32:42;13.60;;;5.75;;
75427;SDS011;64008;55.612;37.698;2023-04-28T02:35:07;7.25;;;3.90;;
75427;SDS011;64008;55.612;37.698;2023-04-28T02:37:33;11.60;;;5.15;;
75427;SDS011;64008;55.612;37.698;2023-04-28T02:39:58;9.65;;;4.65;;
75427;SDS011;64008;55.612;37.698;2023-04-28T02:42:24;13.80;;;5.47;;
75427;SDS011;64008;55.612;37.698;2023-04-28T02:44:49;8.65;;;4.15;;
75427;SDS011;64008;55.612;37.698;2023-04-28T02:47:15;8.98;;;4.72;;
75427;SDS011;64008;55.612;37.698;2023-04-28T02:49:40;10.38;;;5.07;;
75427;SDS011;64008;55.612;37.698;2023-04-28T02:52:06;9.57;;;5.20;;
75427;SDS011;64008;55.612;37.698;2023-04-28T02:54:31;7.72;;;4.88;;
75427;SDS011;64008;55.612;37.698;2023-04-28T02:56:59;12.35;;;5.60;;
75427;SDS011;64008;55.612;37.698;2023-04-28T02:59:25;9.93;;;4.32;;
75427;SDS011;64008;55.612;37.698;2023-04-28T03:01:51;8.88;;;4.68;;
75427;SDS011;64008;55.612;37.698;2023-04-28T03:04:16;10.73;;;4.72;;
75427;SDS011;64008;55.612;37.698;2023-04-28T03:06:42;9.15;;;4.80;;
75427;SDS011;64008;55.612;37.698;2023-04-28T03:09:08;9.88;;;5.30;;
75427;SDS011;64008;55.612;37.698;2023-04-28T03:11:34;11.40;;;4.85;;
75427;SDS011;64008;55.612;37.698;2023-04-28T03:14:00;10.73;;;4.57;;
75427;SDS011;64008;55.612;37.698;2023-04-28T03:16:26;7.80;;;4.25;;
75427;SDS011;64008;55.612;37.698;2023-04-28T03:18:51;12.45;;;4.80;;
75427;SDS011;64008;55.612;37.698;2023-04-28T03:21:17;9.68;;;4.65;;
75427;SDS011;64008;55.612;37.698;2023-04-28T03:23:42;9.73;;;4.00;;
75427;SDS011;64008;55.612;37.698;2023-04-28T03:26:08;11.82;;;5.10;;
75427;SDS011;64008;55.612;37.698;2023-04-28T03:28:33;10.63;;;5.03;;
75427;SDS011;64008;55.612;37.698;2023-04-28T03:30:59;11.85;;;5.07;;
75427;SDS011;64008;55.612;37.698;2023-04-28T03:33:24;13.63;;;4.80;;
75427;SDS011;64008;55.612;37.698;2023-04-28T03:35:50;8.10;;;5.05;;
75427;SDS011;64008;55.612;37.698;2023-04-28T03:38:15;10.15;;;5.20;;
75427;SDS011;64008;55.612;37.698;2023-04-28T03:40:41;7.88;;;4.38;;
75427;SDS011;64008;55.612;37.698;2023-04-28T03:43:06;9.88;;;4.50;;
75427;SDS011;64008;55.612;37.698;2023-04-28T03:45:32;9.32;;;4.68;;
75427;SDS011;64008;55.612;37.698;2023-04-28T03:47:57;9.13;;;4.18;;
75427;SDS011;64008;55.612;37.698;2023-04-28T03:50:23;9.75;;;4.90;;
75427;SDS011;64008;55.612;37.698;2023-04-28T03:52:48;10.13;;;4.72;;
75427;SDS011;64008;55.612;37.698;2023-04-28T03:55:14;12.18;;;6.20;;
75427;SDS011;64008;55.612;37.698;2023-04-28T03:57:40;7.85;;;4.50;;
75427;SDS011;64008;55.612;37.698;2023-04-28T04:00:06;7.55;;;4.00;;
75427;SDS011;64008;55.612;37.698;2023-04-28T04:02:32;8.43;;;4.35;;
75427;SDS011;64008;55.612;37.698;2023-04-28T04:04:57;8.35;;;4.15;;
75427;SDS011;64008;55.612;37.698;2023-04-28T04:07:22;8.82;;;4.57;;
75427;SDS011;64008;55.612;37.698;2023-04-28T04:09:48;7.22;;;4.03;;
75427;SDS011;64008;55.612;37.698;2023-04-28T04:12:14;6.85;;;4.32;;
75427;SDS011;64008;55.612;37.698;2023-04-28T04:14:40;7.63;;;4.10;;
75427;SDS011;64008;55.612;37.698;2023-04-28T04:17:05;10.57;;;4.13;;
75427;SDS011;64008;55.612;37.698;2023-04-28T04:19:31;9.68;;;4.55;;
75427;SDS011;64008;55.612;37.698;2023-04-28T04:21:56;10.55;;;5.88;;
75427;SDS011;64008;55.612;37.698;2023-04-28T04:24:22;8.98;;;4.55;;
75427;SDS011;64008;55.612;37.698;2023-04-28T04:26:47;8.50;;;3.90;;
75427;SDS011;64008;55.612;37.698;2023-04-28T04:29:13;8.57;;;4.53;;
75427;SDS011;64008;55.612;37.698;2023-04-28T04:31:38;8.43;;;4.25;;
75427;SDS011;64008;55.612;37.698;2023-04-28T04:34:04;8.85;;;4.70;;
75427;SDS011;64008;55.612;37.698;2023-04-28T04:36:30;7.07;;;4.07;;
75427;SDS011;64008;55.612;37.698;2023-04-28T04:38:57;8.68;;;5.28;;
75427;SDS011;64008;55.612;37.698;2023-04-28T04:41:22;9.40;;;4.47;;
75427;SDS011;64008;55.612;37.698;2023-04-28T04:43:49;8.90;;;4.40;;
75427;SDS011;64008;55.612;37.698;2023-04-28T04:46:15;10.50;;;4.35;;
75427;SDS011;64008;55.612;37.698;2023-04-28T04:48:41;9.77;;;4.30;;
75427;SDS011;64008;55.612;37.698;2023-04-28T04:51:06;7.65;;;4.15;;
75427;SDS011;64008;55.612;37.698;2023-04-28T04:53:32;8.10;;;3.83;;
75427;SDS011;64008;55.612;37.698;2023-04-28T04:55:57;7.40;;;4.25;;
75427;SDS011;64008;55.612;37.698;2023-04-28T04:58:23;7.70;;;3.58;;
75427;SDS011;64008;55.612;37.698;2023-04-28T05:00:48;6.93;;;4.00;;
75427;SDS011;64008;55.612;37.698;2023-04-28T05:03:14;9.10;;;4.85;;
75427;SDS011;64008;55.612;37.698;2023-04-28T05:05:40;7.22;;;3.35;;
75427;SDS011;64008;55.612;37.698;2023-04-28T05:08:05;7.45;;;3.45;;
75427;SDS011;64008;55.612;37.698;2023-04-28T05:10:31;7.47;;;3.92;;
75427;SDS011;64008;55.612;37.698;2023-04-28T05:12:57;6.90;;;3.53;;
75427;SDS011;64008;55.612;37.698;2023-04-28T05:15:22;8.80;;;4.15;;
75427;SDS011;64008;55.612;37.698;2023-04-28T05:17:47;8.00;;;4.15;;
75427;SDS011;64008;55.612;37.698;2023-04-28T05:20:13;7.85;;;4.22;;
75427;SDS011;64008;55.612;37.698;2023-04-28T05:22:39;8.07;;;3.85;;
75427;SDS011;64008;55.612;37.698;2023-04-28T05:25:05;5.80;;;3.85;;
75427;SDS011;64008;55.612;37.698;2023-04-28T05:29:56;7.57;;;3.78;;
75427;SDS011;64008;55.612;37.698;2023-04-28T05:32:22;6.90;;;3.95;;
75427;SDS011;64008;55.612;37.698;2023-04-28T05:34:47;8.20;;;3.42;;
75427;SDS011;64008;55.612;37.698;2023-04-28T05:37:13;7.20;;;3.75;;
75427;SDS011;64008;55.612;37.698;2023-04-28T05:39:38;8.88;;;3.70;;
75427;SDS011;64008;55.612;37.698;2023-04-28T05:42:04;7.03;;;4.38;;
75427;SDS011;64008;55.612;37.698;2023-04-28T05:44:30;8.85;;;3.38;;
75427;SDS011;64008;55.612;37.698;2023-04-28T05:46:55;8.25;;;4.65;;
75427;SDS011;64008;55.612;37.698;2023-04-28T05:49:21;8.48;;;3.08;;
75427;SDS011;64008;55.612;37.698;2023-04-28T05:51:46;7.03;;;3.25;;
75427;SDS011;64008;55.612;37.698;2023-04-28T05:54:12;8.77;;;3.28;;
75427;SDS011;64008;55.612;37.698;2023-04-28T05:56:37;5.43;;;2.88;;
75427;SDS011;64008;55.612;37.698;2023-04-28T05:59:03;7.38;;;2.95;;
75427;SDS011;64008;55.612;37.698;2023-04-28T06:01:31;6.47;;;2.70;;
75427;SDS011;64008;55.612;37.698;2023-04-28T06:03:57;5.80;;;3.30;;
75427;SDS011;64008;55.612;37.698;2023-04-28T06:06:23;7.30;;;3.40;;
75427;SDS011;64008;55.612;37.698;2023-04-28T06:08:49;8.38;;;2.85;;
75427;SDS011;64008;55.612;37.698;2023-04-28T06:11:15;5.50;;;2.80;;
75427;SDS011;64008;55.612;37.698;2023-04-28T06:13:43;6.25;;;2.83;;
75427;SDS011;64008;55.612;37.698;2023-04-28T06:16:08;6.18;;;3.10;;
75427;SDS011;64008;55.612;37.698;2023-04-28T06:18:34;5.93;;;3.20;;
75427;SDS011;64008;55.612;37.698;2023-04-28T06:21:00;5.32;;;2.80;;
75427;SDS011;64008;55.612;37.698;2023-04-28T06:23:25;7.00;;;2.67;;
75427;SDS011;64008;55.612;37.698;2023-04-28T06:25:51;8.10;;;3.10;;
75427;SDS011;64008;55.612;37.698;2023-04-28T06:28:16;7.15;;;2.88;;
75427;SDS011;64008;55.612;37.698;2023-04-28T06:30:42;8.00;;;2.70;;
75427;SDS011;64008;55.612;37.698;2023-04-28T06:33:08;4.90;;;2.50;;
75427;SDS011;64008;55.612;37.698;2023-04-28T06:35:33;6.47;;;2.95;;
75427;SDS011;64008;55.612;37.698;2023-04-28T06:38:01;6.13;;;2.60;;
75427;SDS011;64008;55.612;37.698;2023-04-28T06:40:27;6.90;;;2.67;;
75427;SDS011;64008;55.612;37.698;2023-04-28T06:42:53;5.50;;;2.90;;
75427;SDS011;64008;55.612;37.698;2023-04-28T06:45:18;6.15;;;2.30;;
75427;SDS011;64008;55.612;37.698;2023-04-28T06:47:44;6.32;;;2.90;;
75427;SDS011;64008;55.612;37.698;2023-04-28T06:50:09;5.72;;;2.30;;
75427;SDS011;64008;55.612;37.698;2023-04-28T06:52:35;6.65;;;2.55;;
75427;SDS011;64008;55.612;37.698;2023-04-28T06:55:03;6.65;;;2.70;;
75427;SDS011;64008;55.612;37.698;2023-04-28T06:57:30;7.43;;;3.08;;
75427;SDS011;64008;55.612;37.698;2023-04-28T06:59:56;5.28;;;2.53;;
75427;SDS011;64008;55.612;37.698;2023-04-28T07:02:21;5.32;;;2.55;;
75427;SDS011;64008;55.612;37.698;2023-04-28T07:04:47;6.45;;;2.33;;
75427;SDS011;64008;55.612;37.698;2023-04-28T07:07:13;9.38;;;2.72;;
75427;SDS011;64008;55.612;37.698;2023-04-28T07:09:38;7.28;;;3.10;;
75427;SDS011;64008;55.612;37.698;2023-04-28T07:12:04;5.95;;;3.10;;
75427;SDS011;64008;55.612;37.698;2023-04-28T07:14:30;6.22;;;2.90;;
75427;SDS011;64008;55.612;37.698;2023-04-28T07:16:55;8.45;;;2.83;;
75427;SDS011;64008;55.612;37.698;2023-04-28T07:19:21;7.05;;;2.72;;
75427;SDS011;64008;55.612;37.698;2023-04-28T07:21:46;6.53;;;2.75;;
75427;SDS011;64008;55.612;37.698;2023-04-28T07:24:12;5.47;;;2.55;;
75427;SDS011;64008;55.612;37.698;2023-04-28T07:26:37;6.13;;;2.67;;
75427;SDS011;64008;55.612;37.698;2023-04-28T07:29:03;7.18;;;3.03;;
75427;SDS011;64008;55.612;37.698;2023-04-28T07:31:29;6.63;;;2.97;;
75427;SDS011;64008;55.612;37.698;2023-04-28T07:33:54;7.18;;;2.78;;
75427;SDS011;64008;55.612;37.698;2023-04-28T07:36:20;5.43;;;2.83;;
75427;SDS011;64008;55.612;37.698;2023-04-28T07:38:46;5.82;;;2.70;;
75427;SDS011;64008;55.612;37.698;2023-04-28T07:41:12;7.20;;;3.58;;
75427;SDS011;64008;55.612;37.698;2023-04-28T07:43:38;7.70;;;3.83;;
75427;SDS011;64008;55.612;37.698;2023-04-28T07:46:04;5.85;;;2.40;;
75427;SDS011;64008;55.612;37.698;2023-04-28T07:48:30;5.57;;;2.78;;
75427;SDS011;64008;55.612;37.698;2023-04-28T07:50:56;6.57;;;2.85;;
75427;SDS011;64008;55.612;37.698;2023-04-28T07:53:22;6.53;;;3.25;;
75427;SDS011;64008;55.612;37.698;2023-04-28T07:55:47;6.20;;;2.72;;
75427;SDS011;64008;55.612;37.698;2023-04-28T07:58:13;4.93;;;2.38;;
75427;SDS011;64008;55.612;37.698;2023-04-28T08:00:38;5.00;;;2.30;;
75427;SDS011;64008;55.612;37.698;2023-04-28T08:03:04;8.55;;;2.95;;
75427;SDS011;64008;55.612;37.698;2023-04-28T08:05:29;4.90;;;2.75;;
75427;SDS011;64008;55.612;37.698;2023-04-28T08:07:56;6.75;;;3.45;;
75427;SDS011;64008;55.612;37.698;2023-04-28T08:10:21;6.30;;;3.47;;
75427;SDS011;64008;55.612;37.698;2023-04-28T08:12:47;7.65;;;3.17;;
75427;SDS011;64008;55.612;37.698;2023-04-28T08:15:12;6.68;;;3.13;;
75427;SDS011;64008;55.612;37.698;2023-04-28T08:17:38;8.32;;;3.05;;
75427;SDS011;64008;55.612;37.698;2023-04-28T08:20:04;8.10;;;4.22;;
75427;SDS011;64008;55.612;37.698;2023-04-28T08:22:30;7.90;;;4.03;;
75427;SDS011;64008;55.612;37.698;2023-04-28T08:24:56;8.05;;;3.22;;
75427;SDS011;64008;55.612;37.698;2023-04-28T08:27:21;6.68;;;3.50;;
75427;SDS011;64008;55.612;37.698;2023-04-28T08:29:48;6.45;;;2.80;;
75427;SDS011;64008;55.612;37.698;2023-04-28T08:32:14;8.40;;;2.83;;
75427;SDS011;64008;55.612;37.698;2023-04-28T08:34:40;9.02;;;3.10;;
75427;SDS011;64008;55.612;37.698;2023-04-28T08:37:06;6.50;;;3.20;;
75427;SDS011;64008;55.612;37.698;2023-04-28T08:39:32;6.22;;;3.13;;
75427;SDS011;64008;55.612;37.698;2023-04-28T08:42:01;11.95;;;3.50;;
75427;SDS011;64008;55.612;37.698;2023-04-28T08:44:32;6.03;;;2.90;;
75427;SDS011;64008;55.612;37.698;2023-04-28T08:47:00;7.07;;;2.40;;
75427;SDS011;64008;55.612;37.698;2023-04-28T08:49:30;9.45;;;2.70;;
75427;SDS011;64008;55.612;37.698;2023-04-28T08:51:59;6.65;;;3.00;;
75427;SDS011;64008;55.612;37.698;2023-04-28T08:54:31;6.20;;;2.15;;
75427;SDS011;64008;55.612;37.698;2023-04-28T08:57:00;8.55;;;2.53;;
75427;SDS011;64008;55.612;37.698;2023-04-28T08:59:26;6.05;;;2.60;;
75427;SDS011;64008;55.612;37.698;2023-04-28T09:01:52;6.38;;;2.38;;
75427;SDS011;64008;55.612;37.698;2023-04-28T09:04:17;5.63;;;2.28;;
75427;SDS011;64008;55.612;37.698;2023-04-28T09:06:43;6.38;;;2.53;;
75427;SDS011;64008;55.612;37.698;2023-04-28T09:11:52;5.82;;;2.40;;
75427;SDS011;64008;55.612;37.698;2023-04-28T09:14:19;4.78;;;2.60;;
75427;SDS011;64008;55.612;37.698;2023-04-28T09:16:46;5.53;;;2.58;;
75427;SDS011;64008;55.612;37.698;2023-04-28T09:19:12;4.97;;;2.83;;
75427;SDS011;64008;55.612;37.698;2023-04-28T09:21:52;5.57;;;2.80;;
75427;SDS011;64008;55.612;37.698;2023-04-28T09:24:29;5.15;;;2.78;;
75427;SDS011;64008;55.612;37.698;2023-04-28T09:27:04;5.65;;;2.55;;
75427;SDS011;64008;55.612;37.698;2023-04-28T09:29:36;5.85;;;2.67;;
75427;SDS011;64008;55.612;37.698;2023-04-28T09:34:47;5.32;;;2.40;;
75427;SDS011;64008;55.612;37.698;2023-04-28T09:37:21;5.05;;;2.75;;
75427;SDS011;64008;55.612;37.698;2023-04-28T09:39:49;5.05;;;2.28;;
75427;SDS011;64008;55.612;37.698;2023-04-28T09:45:04;5.25;;;2.75;;
75427;SDS011;64008;55.612;37.698;2023-04-28T09:47:35;5.43;;;2.35;;
75427;SDS011;64008;55.612;37.698;2023-04-28T09:50:05;5.35;;;2.63;;
75427;SDS011;64008;55.612;37.698;2023-04-28T09:52:36;4.45;;;2.60;;
75427;SDS011;64008;55.612;37.698;2023-04-28T09:55:02;6.13;;;3.10;;
75427;SDS011;64008;55.612;37.698;2023-04-28T09:57:30;6.93;;;2.80;;
75427;SDS011;64008;55.612;37.698;2023-04-28T09:59:57;4.57;;;2.80;;
75427;SDS011;64008;55.612;37.698;2023-04-28T10:02:24;5.45;;;3.22;;
75427;SDS011;64008;55.612;37.698;2023-04-28T10:04:50;4.95;;;2.70;;
75427;SDS011;64008;55.612;37.698;2023-04-28T10:07:20;6.03;;;2.65;;
75427;SDS011;64008;55.612;37.698;2023-04-28T10:09:46;6.35;;;3.30;;
75427;SDS011;64008;55.612;37.698;2023-04-28T10:12:15;6.13;;;3.17;;
75427;SDS011;64008;55.612;37.698;2023-04-28T10:17:07;7.85;;;2.97;;
75427;SDS011;64008;55.612;37.698;2023-04-28T10:19:35;5.03;;;3.15;;
75427;SDS011;64008;55.612;37.698;2023-04-28T10:24:52;4.95;;;2.72;;
75427;SDS011;64008;55.612;37.698;2023-04-28T10:27:28;5.57;;;2.67;;
75427;SDS011;64008;55.612;37.698;2023-04-28T10:30:08;5.40;;;3.20;;
75427;SDS011;64008;55.612;37.698;2023-04-28T10:32:38;5.25;;;2.60;;
75427;SDS011;64008;55.612;37.698;2023-04-28T10:40:39;5.35;;;2.70;;
75427;SDS011;64008;55.612;37.698;2023-04-28T10:43:07;6.13;;;3.00;;
75427;SDS011;64008;55.612;37.698;2023-04-28T10:48:50;6.07;;;2.88;;
75427;SDS011;64008;55.612;37.698;2023-04-28T10:56:12;7.40;;;2.90;;
75427;SDS011;64008;55.612;37.698;2023-04-28T10:58:39;5.68;;;2.53;;
75427;SDS011;64008;55.612;37.698;2023-04-28T11:04:04;6.88;;;3.38;;
75427;SDS011;64008;55.612;37.698;2023-04-28T11:06:53;5.80;;;2.60;;
75427;SDS011;64008;55.612;37.698;2023-04-28T11:12:05;8.15;;;2.92;;
75427;SDS011;64008;55.612;37.698;2023-04-28T11:14:34;4.13;;;2.42;;
75427;SDS011;64008;55.612;37.698;2023-04-28T11:17:07;4.78;;;2.67;;
75427;SDS011;64008;55.612;37.698;2023-04-28T11:22:14;5.60;;;3.13;;
75427;SDS011;64008;55.612;37.698;2023-04-28T11:24:53;5.70;;;3.42;;
75427;SDS011;64008;55.612;37.698;2023-04-28T11:27:24;5.32;;;2.92;;
75427;SDS011;64008;55.612;37.698;2023-04-28T11:29:51;6.10;;;3.05;;
75427;SDS011;64008;55.612;37.698;2023-04-28T11:32:17;5.95;;;3.40;;
75427;SDS011;64008;55.612;37.698;2023-04-28T11:34:59;7.20;;;3.92;;
75427;SDS011;64008;55.612;37.698;2023-04-28T11:37:25;5.35;;;3.10;;
75427;SDS011;64008;55.612;37.698;2023-04-28T11:39:51;8.40;;;3.30;;
75427;SDS011;64008;55.612;37.698;2023-04-28T11:42:16;6.63;;;3.20;;
75427;SDS011;64008;55.612;37.698;2023-04-28T11:44:48;6.50;;;3.40;;
75427;SDS011;64008;55.612;37.698;2023-04-28T11:47:15;6.80;;;3.30;;
75427;SDS011;64008;55.612;37.698;2023-04-28T11:49:52;6.80;;;3.45;;
75427;SDS011;64008;55.612;37.698;2023-04-28T11:52:17;6.00;;;3.15;;
75427;SDS011;64008;55.612;37.698;2023-04-28T11:54:44;8.27;;;3.92;;
75427;SDS011;64008;55.612;37.698;2023-04-28T11:57:17;5.85;;;3.58;;
75427;SDS011;64008;55.612;37.698;2023-04-28T11:59:43;6.32;;;3.33;;
75427;SDS011;64008;55.612;37.698;2023-04-28T12:02:10;6.43;;;3.42;;
75427;SDS011;64008;55.612;37.698;2023-04-28T12:04:36;6.45;;;3.33;;
75427;SDS011;64008;55.612;37.698;2023-04-28T12:07:13;4.95;;;3.03;;
75427;SDS011;64008;55.612;37.698;2023-04-28T12:09:44;7.13;;;3.55;;
75427;SDS011;64008;55.612;37.698;2023-04-28T12:12:26;7.10;;;3.55;;
75427;SDS011;64008;55.612;37.698;2023-04-28T12:15:04;6.40;;;3.45;;
75427;SDS011;64008;55.612;37.698;2023-04-28T12:17:35;7.43;;;3.55;;
75427;SDS011;64008;55.612;37.698;2023-04-28T12:20:03;6.07;;;3.45;;
75427;SDS011;64008;55.612;37.698;2023-04-28T12:22:42;6.07;;;3.45;;
75427;SDS011;64008;55.612;37.698;2023-04-28T12:25:10;6.53;;;4.03;;
75427;SDS011;64008;55.612;37.698;2023-04-28T12:27:37;7.97;;;3.45;;
75427;SDS011;64008;55.612;37.698;2023-04-28T12:30:25;5.50;;;3.25;;
75427;SDS011;64008;55.612;37.698;2023-04-28T12:32:54;6.18;;;3.33;;
75427;SDS011;64008;55.612;37.698;2023-04-28T12:35:21;6.72;;;3.80;;
75427;SDS011;64008;55.612;37.698;2023-04-28T12:37:48;6.40;;;3.50;;
75427;SDS011;64008;55.612;37.698;2023-04-28T12:40:14;6.10;;;4.05;;
75427;SDS011;64008;55.612;37.698;2023-04-28T12:42:39;6.65;;;3.22;;
75427;SDS011;64008;55.612;37.698;2023-04-28T12:45:06;5.07;;;2.83;;
75427;SDS011;64008;55.612;37.698;2023-04-28T12:47:32;6.32;;;3.42;;
75427;SDS011;64008;55.612;37.698;2023-04-28T12:49:58;6.30;;;3.42;;
75427;SDS011;64008;55.612;37.698;2023-04-28T12:52:23;5.05;;;2.72;;
75427;SDS011;64008;55.612;37.698;2023-04-28T12:54:49;5.57;;;3.05;;
75427;SDS011;64008;55.612;37.698;2023-04-28T12:57:15;6.65;;;3.42;;
75427;SDS011;64008;55.612;37.698;2023-04-28T12:59:46;5.50;;;3.25;;
75427;SDS011;64008;55.612;37.698;2023-04-28T13:02:12;5.13;;;3.22;;
75427;SDS011;64008;55.612;37.698;2023-04-28T13:04:41;5.55;;;3.20;;
75427;SDS011;64008;55.612;37.698;2023-04-28T13:07:09;4.47;;;2.88;;
75427;SDS011;64008;55.612;37.698;2023-04-28T13:09:35;6.30;;;3.63;;
75427;SDS011;64008;55.612;37.698;2023-04-28T13:12:01;6.53;;;3.38;;
75427;SDS011;64008;55.612;37.698;2023-04-28T13:14:27;12.02;;;3.97;;
75427;SDS011;64008;55.612;37.698;2023-04-28T13:16:53;5.85;;;3.33;;
75427;SDS011;64008;55.612;37.698;2023-04-28T13:19:18;9.77;;;3.45;;
75427;SDS011;64008;55.612;37.698;2023-04-28T13:21:44;18.63;;;4.20;;
75427;SDS011;64008;55.612;37.698;2023-04-28T13:24:11;8.73;;;3.25;;
75427;SDS011;64008;55.612;37.698;2023-04-28T13:26:38;11.23;;;3.80;;
75427;SDS011;64008;55.612;37.698;2023-04-28T13:29:04;10.52;;;4.15;;
75427;SDS011;64008;55.612;37.698;2023-04-28T13:31:29;9.52;;;4.05;;
75427;SDS011;64008;55.612;37.698;2023-04-28T13:33:55;8.07;;;3.65;;
75427;SDS011;64008;55.612;37.698;2023-04-28T13:36:22;7.75;;;3.30;;
75427;SDS011;64008;55.612;37.698;2023-04-28T13:38:48;7.68;;;4.15;;
75427;SDS011;64008;55.612;37.698;2023-04-28T13:41:14;6.40;;;3.55;;
75427;SDS011;64008;55.612;37.698;2023-04-28T13:43:40;9.70;;;3.97;;
75427;SDS011;64008;55.612;37.698;2023-04-28T13:46:06;11.43;;;3.55;;
75427;SDS011;64008;55.612;37.698;2023-04-28T13:48:33;6.07;;;3.40;;
75427;SDS011;64008;55.612;37.698;2023-04-28T13:51:00;6.38;;;3.15;;
75427;SDS011;64008;55.612;37.698;2023-04-28T13:53:29;13.60;;;4.32;;
75427;SDS011;64008;55.612;37.698;2023-04-28T13:55:55;9.98;;;3.30;;
75427;SDS011;64008;55.612;37.698;2023-04-28T13:58:24;6.57;;;2.85;;
75427;SDS011;64008;55.612;37.698;2023-04-28T14:00:51;5.55;;;2.70;;
75427;SDS011;64008;55.612;37.698;2023-04-28T14:03:17;6.45;;;2.72;;
75427;SDS011;64008;55.612;37.698;2023-04-28T14:05:53;6.07;;;2.85;;
75427;SDS011;64008;55.612;37.698;2023-04-28T14:08:20;5.82;;;2.33;;
75427;SDS011;64008;55.612;37.698;2023-04-28T14:10:46;4.78;;;2.70;;
75427;SDS011;64008;55.612;37.698;2023-04-28T14:13:12;5.57;;;2.53;;
75427;SDS011;64008;55.612;37.698;2023-04-28T14:15:38;5.78;;;2.70;;
75427;SDS011;64008;55.612;37.698;2023-04-28T14:18:04;10.52;;;3.30;;
75427;SDS011;64008;55.612;37.698;2023-04-28T14:20:30;5.10;;;2.58;;
75427;SDS011;64008;55.612;37.698;2023-04-28T14:22:55;5.18;;;2.67;;
75427;SDS011;64008;55.612;37.698;2023-04-28T14:25:22;6.05;;;2.67;;
75427;SDS011;64008;55.612;37.698;2023-04-28T14:27:48;7.07;;;2.95;;
75427;SDS011;64008;55.612;37.698;2023-04-28T14:30:14;7.97;;;3.28;;
75427;SDS011;64008;55.612;37.698;2023-04-28T14:32:40;7.70;;;3.80;;
75427;SDS011;64008;55.612;37.698;2023-04-28T14:35:06;6.45;;;2.90;;
75427;SDS011;64008;55.612;37.698;2023-04-28T14:37:32;7.35;;;3.38;;
75427;SDS011;64008;55.612;37.698;2023-04-28T14:39:58;7.53;;;2.58;;
75427;SDS011;64008;55.612;37.698;2023-04-28T14:42:28;6.25;;;3.05;;
75427;SDS011;64008;55.612;37.698;2023-04-28T14:44:55;5.78;;;3.35;;
75427;SDS011;64008;55.612;37.698;2023-04-28T14:47:21;6.93;;;2.65;;
75427;SDS011;64008;55.612;37.698;2023-04-28T14:49:47;7.90;;;2.58;;
75427;SDS011;64008;55.612;37.698;2023-04-28T14:52:13;5.32;;;2.53;;
75427;SDS011;64008;55.612;37.698;2023-04-28T14:54:39;6.97;;;2.20;;
75427;SDS011;64008;55.612;37.698;2023-04-28T14:57:05;4.63;;;2.30;;
75427;SDS011;64008;55.612;37.698;2023-04-28T14:59:31;7.13;;;2.97;;
75427;SDS011;64008;55.612;37.698;2023-04-28T15:01:56;5.10;;;1.92;;
75427;SDS011;64008;55.612;37.698;2023-04-28T15:04:22;7.18;;;2.28;;
75427;SDS011;64008;55.612;37.698;2023-04-28T15:06:54;7.38;;;2.92;;
75427;SDS011;64008;55.612;37.698;2023-04-28T15:09:20;6.95;;;2.72;;
75427;SDS011;64008;55.612;37.698;2023-04-28T15:11:46;8.95;;;2.50;;
75427;SDS011;64008;55.612;37.698;2023-04-28T15:14:12;6.38;;;2.42;;